sensor_id;sensor_type;location;lat;lon;timestamp;P1;durP1;ratioP1;P2;durP2;ratioP2
58468;SDS011;44257;44.804;10.220;2023-06-10T00:01:30;7.85;;;5.90;;
58468;SDS011;44257;44.804;10.220;2023-06-10T00:03:56;8.60;;;5.40;;
58468;SDS011;44257;44.804;10.220;2023-06-10T00:06:22;10.35;;;5.70;;
58468;SDS011;44257;44.804;10.220;2023-06-10T00:08:51;6.32;;;4.53;;
58468;SDS011;44257;44.804;10.220;2023-06-10T00:11:16;7.68;;;4.82;;
58468;SDS011;44257;44.804;10.220;2023-06-10T00:13:42;6.53;;;4.32;;
58468;SDS011;44257;44.804;10.220;2023-06-10T00:16:08;7.18;;;4.30;;
58468;SDS011;44257;44.804;10.220;2023-06-10T00:18:34;7.50;;;4.63;;
58468;SDS011;44257;44.804;10.220;2023-06-10T00:21:02;6.28;;;4.72;;
58468;SDS011;44257;44.804;10.220;2023-06-10T00:23:30;6.97;;;4.03;;
58468;SDS011;44257;44.804;10.220;2023-06-10T00:26:00;7.35;;;4.35;;
58468;SDS011;44257;44.804;10.220;2023-06-10T00:28:25;11.45;;;4.20;;
58468;SDS011;44257;44.804;10.220;2023-06-10T00:30:51;7.88;;;4.43;;
58468;SDS011;44257;44.804;10.220;2023-06-10T00:33:17;6.72;;;4.13;;
58468;SDS011;44257;44.804;10.220;2023-06-10T00:35:43;7.38;;;4.05;;
58468;SDS011;44257;44.804;10.220;2023-06-10T00:38:08;6.15;;;4.38;;
58468;SDS011;44257;44.804;10.220;2023-06-10T00:40:41;6.75;;;3.72;;
58468;SDS011;44257;44.804;10.220;2023-06-10T00:43:07;6.53;;;3.97;;
58468;SDS011;44257;44.804;10.220;2023-06-10T00:45:33;7.75;;;3.97;;
58468;SDS011;44257;44.804;10.220;2023-06-10T00:47:59;6.70;;;3.33;;
58468;SDS011;44257;44.804;10.220;2023-06-10T00:50:26;7.85;;;3.65;;
58468;SDS011;44257;44.804;10.220;2023-06-10T00:52:53;5.93;;;3.60;;
58468;SDS011;44257;44.804;10.220;2023-06-10T00:55:19;5.90;;;3.72;;
58468;SDS011;44257;44.804;10.220;2023-06-10T00:57:45;6.22;;;3.42;;
58468;SDS011;44257;44.804;10.220;2023-06-10T01:00:13;7.85;;;3.67;;
58468;SDS011;44257;44.804;10.220;2023-06-10T01:02:40;6.85;;;3.40;;
58468;SDS011;44257;44.804;10.220;2023-06-10T01:05:07;7.80;;;3.92;;
58468;SDS011;44257;44.804;10.220;2023-06-10T01:10:16;4.68;;;3.53;;
58468;SDS011;44257;44.804;10.220;2023-06-10T01:13:07;7.20;;;4.10;;
58468;SDS011;44257;44.804;10.220;2023-06-10T01:15:37;6.88;;;4.20;;
58468;SDS011;44257;44.804;10.220;2023-06-10T01:18:08;7.78;;;3.92;;
58468;SDS011;44257;44.804;10.220;2023-06-10T01:20:35;7.57;;;4.00;;
58468;SDS011;44257;44.804;10.220;2023-06-10T01:23:05;9.38;;;4.65;;
58468;SDS011;44257;44.804;10.220;2023-06-10T01:25:31;6.57;;;4.50;;
58468;SDS011;44257;44.804;10.220;2023-06-10T01:28:14;6.32;;;4.30;;
58468;SDS011;44257;44.804;10.220;2023-06-10T01:33:34;7.38;;;4.50;;
58468;SDS011;44257;44.804;10.220;2023-06-10T01:36:03;10.63;;;4.68;;
58468;SDS011;44257;44.804;10.220;2023-06-10T01:38:45;9.40;;;4.13;;
58468;SDS011;44257;44.804;10.220;2023-06-10T01:41:14;6.53;;;3.75;;
58468;SDS011;44257;44.804;10.220;2023-06-10T01:43:43;7.95;;;4.40;;
58468;SDS011;44257;44.804;10.220;2023-06-10T01:46:09;5.82;;;4.00;;
58468;SDS011;44257;44.804;10.220;2023-06-10T01:48:37;6.13;;;3.70;;
58468;SDS011;44257;44.804;10.220;2023-06-10T01:51:03;8.25;;;4.35;;
58468;SDS011;44257;44.804;10.220;2023-06-10T01:53:30;8.40;;;4.75;;
58468;SDS011;44257;44.804;10.220;2023-06-10T01:55:56;8.50;;;4.28;;
58468;SDS011;44257;44.804;10.220;2023-06-10T01:58:22;7.82;;;4.07;;
58468;SDS011;44257;44.804;10.220;2023-06-10T02:00:47;7.75;;;4.30;;
58468;SDS011;44257;44.804;10.220;2023-06-10T02:03:13;10.55;;;4.68;;
58468;SDS011;44257;44.804;10.220;2023-06-10T02:05:39;8.63;;;3.90;;
58468;SDS011;44257;44.804;10.220;2023-06-10T02:08:05;7.32;;;4.55;;
58468;SDS011;44257;44.804;10.220;2023-06-10T02:10:31;8.32;;;5.22;;
58468;SDS011;44257;44.804;10.220;2023-06-10T02:12:56;7.97;;;5.32;;
58468;SDS011;44257;44.804;10.220;2023-06-10T02:15:23;10.68;;;5.78;;
58468;SDS011;44257;44.804;10.220;2023-06-10T02:17:49;8.75;;;4.80;;
58468;SDS011;44257;44.804;10.220;2023-06-10T02:20:15;11.35;;;5.72;;
58468;SDS011;44257;44.804;10.220;2023-06-10T02:22:41;7.40;;;4.90;;
58468;SDS011;44257;44.804;10.220;2023-06-10T02:25:07;11.45;;;5.13;;
58468;SDS011;44257;44.804;10.220;2023-06-10T02:27:33;6.97;;;4.57;;
58468;SDS011;44257;44.804;10.220;2023-06-10T02:29:59;8.77;;;4.45;;
58468;SDS011;44257;44.804;10.220;2023-06-10T02:32:25;8.32;;;4.95;;
58468;SDS011;44257;44.804;10.220;2023-06-10T02:34:52;8.98;;;4.75;;
58468;SDS011;44257;44.804;10.220;2023-06-10T02:37:21;8.70;;;5.18;;
58468;SDS011;44257;44.804;10.220;2023-06-10T02:39:46;8.82;;;4.53;;
58468;SDS011;44257;44.804;10.220;2023-06-10T02:42:12;5.95;;;4.60;;
58468;SDS011;44257;44.804;10.220;2023-06-10T02:44:38;9.75;;;4.20;;
58468;SDS011;44257;44.804;10.220;2023-06-10T02:47:06;8.48;;;4.60;;
58468;SDS011;44257;44.804;10.220;2023-06-10T02:49:34;7.18;;;4.35;;
58468;SDS011;44257;44.804;10.220;2023-06-10T02:52:01;7.03;;;4.90;;
58468;SDS011;44257;44.804;10.220;2023-06-10T02:54:26;6.63;;;4.32;;
58468;SDS011;44257;44.804;10.220;2023-06-10T02:56:54;7.28;;;4.70;;
58468;SDS011;44257;44.804;10.220;2023-06-10T02:59:23;7.63;;;4.15;;
58468;SDS011;44257;44.804;10.220;2023-06-10T03:01:49;9.10;;;4.72;;
58468;SDS011;44257;44.804;10.220;2023-06-10T03:04:15;8.52;;;4.50;;
58468;SDS011;44257;44.804;10.220;2023-06-10T03:06:49;9.68;;;4.32;;
58468;SDS011;44257;44.804;10.220;2023-06-10T03:09:20;6.20;;;4.40;;
58468;SDS011;44257;44.804;10.220;2023-06-10T03:11:49;7.38;;;4.70;;
58468;SDS011;44257;44.804;10.220;2023-06-10T03:14:15;7.07;;;4.78;;
58468;SDS011;44257;44.804;10.220;2023-06-10T03:16:41;7.47;;;4.65;;
58468;SDS011;44257;44.804;10.220;2023-06-10T03:19:08;8.63;;;3.97;;
58468;SDS011;44257;44.804;10.220;2023-06-10T03:21:35;6.45;;;4.32;;
58468;SDS011;44257;44.804;10.220;2023-06-10T03:24:03;11.20;;;4.78;;
58468;SDS011;44257;44.804;10.220;2023-06-10T03:26:31;8.25;;;4.68;;
58468;SDS011;44257;44.804;10.220;2023-06-10T03:28:58;6.93;;;5.05;;
58468;SDS011;44257;44.804;10.220;2023-06-10T03:31:24;6.97;;;4.20;;
58468;SDS011;44257;44.804;10.220;2023-06-10T03:33:52;8.27;;;4.40;;
58468;SDS011;44257;44.804;10.220;2023-06-10T03:36:17;8.38;;;3.92;;
58468;SDS011;44257;44.804;10.220;2023-06-10T03:38:44;5.45;;;4.13;;
58468;SDS011;44257;44.804;10.220;2023-06-10T03:41:09;7.30;;;4.70;;
58468;SDS011;44257;44.804;10.220;2023-06-10T03:43:38;9.43;;;4.68;;
58468;SDS011;44257;44.804;10.220;2023-06-10T03:46:06;5.55;;;4.30;;
58468;SDS011;44257;44.804;10.220;2023-06-10T03:48:32;7.00;;;4.45;;
58468;SDS011;44257;44.804;10.220;2023-06-10T03:50:58;9.90;;;4.90;;
58468;SDS011;44257;44.804;10.220;2023-06-10T03:53:24;7.55;;;5.15;;
58468;SDS011;44257;44.804;10.220;2023-06-10T03:55:50;10.13;;;5.13;;
58468;SDS011;44257;44.804;10.220;2023-06-10T03:58:20;9.65;;;5.18;;
58468;SDS011;44257;44.804;10.220;2023-06-10T04:00:45;10.73;;;5.00;;
58468;SDS011;44257;44.804;10.220;2023-06-10T04:03:12;7.45;;;4.53;;
58468;SDS011;44257;44.804;10.220;2023-06-10T04:05:42;6.82;;;4.43;;
58468;SDS011;44257;44.804;10.220;2023-06-10T04:08:08;7.22;;;4.57;;
58468;SDS011;44257;44.804;10.220;2023-06-10T04:10:34;6.63;;;4.93;;
58468;SDS011;44257;44.804;10.220;2023-06-10T04:13:00;8.98;;;5.10;;
58468;SDS011;44257;44.804;10.220;2023-06-10T04:15:30;8.00;;;4.97;;
58468;SDS011;44257;44.804;10.220;2023-06-10T04:17:59;9.00;;;4.80;;
58468;SDS011;44257;44.804;10.220;2023-06-10T04:20:26;9.02;;;5.40;;
58468;SDS011;44257;44.804;10.220;2023-06-10T04:22:52;10.80;;;5.00;;
58468;SDS011;44257;44.804;10.220;2023-06-10T04:25:19;9.00;;;4.95;;
58468;SDS011;44257;44.804;10.220;2023-06-10T04:27:47;7.88;;;5.50;;
58468;SDS011;44257;44.804;10.220;2023-06-10T04:30:14;9.57;;;5.88;;
58468;SDS011;44257;44.804;10.220;2023-06-10T04:32:42;8.80;;;6.50;;
58468;SDS011;44257;44.804;10.220;2023-06-10T04:35:12;9.48;;;7.13;;
58468;SDS011;44257;44.804;10.220;2023-06-10T04:37:39;11.05;;;6.35;;
58468;SDS011;44257;44.804;10.220;2023-06-10T04:40:06;10.55;;;6.18;;
58468;SDS011;44257;44.804;10.220;2023-06-10T04:42:33;7.55;;;5.80;;
58468;SDS011;44257;44.804;10.220;2023-06-10T04:44:59;9.57;;;6.18;;
58468;SDS011;44257;44.804;10.220;2023-06-10T04:47:25;9.43;;;6.65;;
58468;SDS011;44257;44.804;10.220;2023-06-10T04:49:51;10.52;;;6.38;;
58468;SDS011;44257;44.804;10.220;2023-06-10T04:52:17;8.75;;;6.30;;
58468;SDS011;44257;44.804;10.220;2023-06-10T04:54:43;10.02;;;6.63;;
58468;SDS011;44257;44.804;10.220;2023-06-10T04:57:09;7.47;;;5.15;;
58468;SDS011;44257;44.804;10.220;2023-06-10T04:59:36;9.65;;;5.72;;
58468;SDS011;44257;44.804;10.220;2023-06-10T05:02:03;11.07;;;5.63;;
58468;SDS011;44257;44.804;10.220;2023-06-10T05:04:30;7.93;;;5.53;;
58468;SDS011;44257;44.804;10.220;2023-06-10T05:06:56;9.02;;;5.75;;
58468;SDS011;44257;44.804;10.220;2023-06-10T05:09:21;6.68;;;4.40;;
58468;SDS011;44257;44.804;10.220;2023-06-10T05:11:47;8.50;;;4.43;;
58468;SDS011;44257;44.804;10.220;2023-06-10T05:14:13;6.10;;;4.35;;
58468;SDS011;44257;44.804;10.220;2023-06-10T05:16:41;7.50;;;5.15;;
58468;SDS011;44257;44.804;10.220;2023-06-10T05:19:08;10.98;;;5.85;;
58468;SDS011;44257;44.804;10.220;2023-06-10T05:21:34;8.88;;;5.47;;
58468;SDS011;44257;44.804;10.220;2023-06-10T05:24:00;9.23;;;6.05;;
58468;SDS011;44257;44.804;10.220;2023-06-10T05:26:25;8.15;;;5.65;;
58468;SDS011;44257;44.804;10.220;2023-06-10T05:28:51;9.93;;;5.95;;
58468;SDS011;44257;44.804;10.220;2023-06-10T05:31:17;8.65;;;5.70;;
58468;SDS011;44257;44.804;10.220;2023-06-10T05:33:43;6.72;;;5.43;;
58468;SDS011;44257;44.804;10.220;2023-06-10T05:36:09;9.15;;;4.88;;
58468;SDS011;44257;44.804;10.220;2023-06-10T05:38:35;7.95;;;4.95;;
58468;SDS011;44257;44.804;10.220;2023-06-10T05:41:00;8.55;;;4.57;;
58468;SDS011;44257;44.804;10.220;2023-06-10T05:43:26;7.68;;;5.03;;
58468;SDS011;44257;44.804;10.220;2023-06-10T05:45:52;7.55;;;4.88;;
58468;SDS011;44257;44.804;10.220;2023-06-10T05:48:18;8.60;;;4.70;;
58468;SDS011;44257;44.804;10.220;2023-06-10T05:50:45;6.05;;;4.25;;
58468;SDS011;44257;44.804;10.220;2023-06-10T05:53:14;6.63;;;4.30;;
58468;SDS011;44257;44.804;10.220;2023-06-10T05:55:41;7.82;;;3.55;;
58468;SDS011;44257;44.804;10.220;2023-06-10T05:58:08;7.43;;;3.78;;
58468;SDS011;44257;44.804;10.220;2023-06-10T06:00:34;5.38;;;3.45;;
58468;SDS011;44257;44.804;10.220;2023-06-10T06:03:00;5.03;;;3.30;;
58468;SDS011;44257;44.804;10.220;2023-06-10T06:05:26;4.82;;;3.03;;
58468;SDS011;44257;44.804;10.220;2023-06-10T06:07:52;5.75;;;3.70;;
58468;SDS011;44257;44.804;10.220;2023-06-10T06:10:18;5.43;;;4.05;;
58468;SDS011;44257;44.804;10.220;2023-06-10T06:12:44;5.53;;;3.53;;
58468;SDS011;44257;44.804;10.220;2023-06-10T06:15:10;7.15;;;3.65;;
58468;SDS011;44257;44.804;10.220;2023-06-10T06:17:36;6.05;;;3.72;;
58468;SDS011;44257;44.804;10.220;2023-06-10T06:20:03;7.60;;;4.00;;
58468;SDS011;44257;44.804;10.220;2023-06-10T06:22:29;5.80;;;4.32;;
58468;SDS011;44257;44.804;10.220;2023-06-10T06:24:55;5.82;;;4.43;;
58468;SDS011;44257;44.804;10.220;2023-06-10T06:27:20;6.68;;;4.30;;
58468;SDS011;44257;44.804;10.220;2023-06-10T06:29:46;5.18;;;4.00;;
58468;SDS011;44257;44.804;10.220;2023-06-10T06:32:12;5.97;;;3.60;;
58468;SDS011;44257;44.804;10.220;2023-06-10T06:34:38;5.38;;;3.25;;
58468;SDS011;44257;44.804;10.220;2023-06-10T06:37:04;5.43;;;3.55;;
58468;SDS011;44257;44.804;10.220;2023-06-10T06:39:33;7.30;;;3.17;;
58468;SDS011;44257;44.804;10.220;2023-06-10T06:41:59;6.20;;;3.10;;
58468;SDS011;44257;44.804;10.220;2023-06-10T06:44:41;4.65;;;3.33;;
58468;SDS011;44257;44.804;10.220;2023-06-10T06:47:07;7.03;;;3.40;;
58468;SDS011;44257;44.804;10.220;2023-06-10T06:49:33;8.20;;;3.53;;
58468;SDS011;44257;44.804;10.220;2023-06-10T06:51:59;5.25;;;3.47;;
58468;SDS011;44257;44.804;10.220;2023-06-10T06:54:25;5.75;;;3.15;;
58468;SDS011;44257;44.804;10.220;2023-06-10T06:56:51;4.20;;;2.92;;
58468;SDS011;44257;44.804;10.220;2023-06-10T06:59:16;5.47;;;3.20;;
58468;SDS011;44257;44.804;10.220;2023-06-10T07:01:44;4.68;;;3.00;;
58468;SDS011;44257;44.804;10.220;2023-06-10T07:04:11;5.82;;;3.17;;
58468;SDS011;44257;44.804;10.220;2023-06-10T07:06:39;5.28;;;3.42;;
58468;SDS011;44257;44.804;10.220;2023-06-10T07:09:05;7.07;;;3.75;;
58468;SDS011;44257;44.804;10.220;2023-06-10T07:11:32;6.32;;;4.32;;
58468;SDS011;44257;44.804;10.220;2023-06-10T07:13:58;5.80;;;3.85;;
58468;SDS011;44257;44.804;10.220;2023-06-10T07:16:24;7.45;;;4.22;;
58468;SDS011;44257;44.804;10.220;2023-06-10T07:18:49;4.95;;;3.42;;
58468;SDS011;44257;44.804;10.220;2023-06-10T07:21:17;7.47;;;4.43;;
58468;SDS011;44257;44.804;10.220;2023-06-10T07:23:43;6.50;;;4.28;;
58468;SDS011;44257;44.804;10.220;2023-06-10T07:26:09;5.68;;;3.83;;
58468;SDS011;44257;44.804;10.220;2023-06-10T07:28:37;6.18;;;4.53;;
58468;SDS011;44257;44.804;10.220;2023-06-10T07:31:03;7.38;;;4.40;;
58468;SDS011;44257;44.804;10.220;2023-06-10T07:33:29;6.95;;;4.22;;
58468;SDS011;44257;44.804;10.220;2023-06-10T07:35:54;6.22;;;4.00;;
58468;SDS011;44257;44.804;10.220;2023-06-10T07:38:20;8.82;;;4.43;;
58468;SDS011;44257;44.804;10.220;2023-06-10T07:40:46;10.65;;;4.13;;
58468;SDS011;44257;44.804;10.220;2023-06-10T07:43:12;7.32;;;4.05;;
58468;SDS011;44257;44.804;10.220;2023-06-10T07:45:41;4.72;;;3.28;;
58468;SDS011;44257;44.804;10.220;2023-06-10T07:48:07;10.38;;;3.75;;
58468;SDS011;44257;44.804;10.220;2023-06-10T07:50:33;6.15;;;3.78;;
58468;SDS011;44257;44.804;10.220;2023-06-10T07:52:59;6.68;;;3.65;;
58468;SDS011;44257;44.804;10.220;2023-06-10T07:55:25;6.72;;;3.47;;
58468;SDS011;44257;44.804;10.220;2023-06-10T07:57:51;8.27;;;3.38;;
58468;SDS011;44257;44.804;10.220;2023-06-10T08:00:18;6.65;;;3.45;;
58468;SDS011;44257;44.804;10.220;2023-06-10T08:02:44;9.02;;;3.30;;
58468;SDS011;44257;44.804;10.220;2023-06-10T08:05:10;6.95;;;3.30;;
58468;SDS011;44257;44.804;10.220;2023-06-10T08:07:36;6.38;;;3.22;;
58468;SDS011;44257;44.804;10.220;2023-06-10T08:10:02;7.18;;;3.63;;
58468;SDS011;44257;44.804;10.220;2023-06-10T08:12:30;8.02;;;3.30;;
58468;SDS011;44257;44.804;10.220;2023-06-10T08:14:55;6.95;;;4.78;;
58468;SDS011;44257;44.804;10.220;2023-06-10T08:17:21;16.80;;;9.23;;
58468;SDS011;44257;44.804;10.220;2023-06-10T08:19:47;20.08;;;10.60;;
58468;SDS011;44257;44.804;10.220;2023-06-10T08:22:13;23.25;;;12.50;;
58468;SDS011;44257;44.804;10.220;2023-06-10T08:24:40;24.77;;;13.95;;
58468;SDS011;44257;44.804;10.220;2023-06-10T08:27:05;32.15;;;18.40;;
58468;SDS011;44257;44.804;10.220;2023-06-10T08:29:31;30.02;;;19.48;;
58468;SDS011;44257;44.804;10.220;2023-06-10T08:31:57;30.35;;;18.17;;
58468;SDS011;44257;44.804;10.220;2023-06-10T08:34:24;24.92;;;15.85;;
58468;SDS011;44257;44.804;10.220;2023-06-10T08:36:50;19.50;;;11.82;;
58468;SDS011;44257;44.804;10.220;2023-06-10T08:39:23;12.80;;;7.90;;
58468;SDS011;44257;44.804;10.220;2023-06-10T08:42:00;11.20;;;7.28;;
58468;SDS011;44257;44.804;10.220;2023-06-10T08:44:46;13.10;;;6.20;;
58468;SDS011;44257;44.804;10.220;2023-06-10T08:47:14;10.70;;;6.60;;
58468;SDS011;44257;44.804;10.220;2023-06-10T08:49:43;11.82;;;6.47;;
58468;SDS011;44257;44.804;10.220;2023-06-10T08:52:15;8.57;;;6.00;;
58468;SDS011;44257;44.804;10.220;2023-06-10T08:54:43;10.43;;;5.47;;
58468;SDS011;44257;44.804;10.220;2023-06-10T08:57:22;6.50;;;4.55;;
58468;SDS011;44257;44.804;10.220;2023-06-10T08:59:48;6.20;;;3.88;;
58468;SDS011;44257;44.804;10.220;2023-06-10T09:02:14;7.47;;;3.92;;
58468;SDS011;44257;44.804;10.220;2023-06-10T09:04:44;5.75;;;3.60;;
58468;SDS011;44257;44.804;10.220;2023-06-10T09:07:13;8.35;;;4.57;;
58468;SDS011;44257;44.804;10.220;2023-06-10T09:09:41;7.93;;;3.28;;
58468;SDS011;44257;44.804;10.220;2023-06-10T09:12:08;4.55;;;3.38;;
58468;SDS011;44257;44.804;10.220;2023-06-10T09:14:35;5.00;;;3.10;;
58468;SDS011;44257;44.804;10.220;2023-06-10T09:17:01;4.47;;;2.92;;
58468;SDS011;44257;44.804;10.220;2023-06-10T09:19:28;6.05;;;3.05;;
58468;SDS011;44257;44.804;10.220;2023-06-10T09:21:54;6.03;;;3.58;;
58468;SDS011;44257;44.804;10.220;2023-06-10T09:24:21;6.80;;;2.83;;
58468;SDS011;44257;44.804;10.220;2023-06-10T09:26:48;6.70;;;2.58;;
58468;SDS011;44257;44.804;10.220;2023-06-10T09:29:16;4.75;;;2.17;;
58468;SDS011;44257;44.804;10.220;2023-06-10T09:31:42;6.15;;;2.10;;
58468;SDS011;44257;44.804;10.220;2023-06-10T09:34:10;5.65;;;2.53;;
58468;SDS011;44257;44.804;10.220;2023-06-10T09:36:37;5.97;;;2.90;;
58468;SDS011;44257;44.804;10.220;2023-06-10T09:39:04;4.80;;;2.58;;
58468;SDS011;44257;44.804;10.220;2023-06-10T09:41:40;5.78;;;2.88;;
58468;SDS011;44257;44.804;10.220;2023-06-10T09:44:14;4.60;;;2.63;;
58468;SDS011;44257;44.804;10.220;2023-06-10T09:46:45;6.10;;;3.13;;
58468;SDS011;44257;44.804;10.220;2023-06-10T09:49:12;4.05;;;2.97;;
58468;SDS011;44257;44.804;10.220;2023-06-10T09:51:48;4.97;;;3.00;;
58468;SDS011;44257;44.804;10.220;2023-06-10T09:54:18;6.93;;;3.10;;
58468;SDS011;44257;44.804;10.220;2023-06-10T09:56:51;6.47;;;3.08;;
58468;SDS011;44257;44.804;10.220;2023-06-10T10:01:57;6.78;;;3.80;;
58468;SDS011;44257;44.804;10.220;2023-06-10T10:04:23;6.90;;;3.63;;
58468;SDS011;44257;44.804;10.220;2023-06-10T10:06:50;7.70;;;4.10;;
58468;SDS011;44257;44.804;10.220;2023-06-10T10:09:16;8.52;;;4.95;;
58468;SDS011;44257;44.804;10.220;2023-06-10T10:11:42;7.63;;;4.55;;
58468;SDS011;44257;44.804;10.220;2023-06-10T10:14:09;6.90;;;4.45;;
58468;SDS011;44257;44.804;10.220;2023-06-10T10:16:40;6.80;;;4.63;;
58468;SDS011;44257;44.804;10.220;2023-06-10T10:19:16;7.75;;;5.25;;
58468;SDS011;44257;44.804;10.220;2023-06-10T10:21:56;5.85;;;4.97;;
58468;SDS011;44257;44.804;10.220;2023-06-10T10:25:02;8.90;;;5.30;;
58468;SDS011;44257;44.804;10.220;2023-06-10T10:30:20;8.98;;;5.78;;
58468;SDS011;44257;44.804;10.220;2023-06-10T10:35:58;7.13;;;5.47;;
58468;SDS011;44257;44.804;10.220;2023-06-10T10:38:25;5.95;;;5.25;;
58468;SDS011;44257;44.804;10.220;2023-06-10T10:40:53;7.88;;;5.35;;
58468;SDS011;44257;44.804;10.220;2023-06-10T10:43:21;8.88;;;6.10;;
58468;SDS011;44257;44.804;10.220;2023-06-10T10:45:57;7.07;;;5.45;;
58468;SDS011;44257;44.804;10.220;2023-06-10T10:48:27;7.97;;;5.13;;
58468;SDS011;44257;44.804;10.220;2023-06-10T10:50:59;7.85;;;5.65;;
58468;SDS011;44257;44.804;10.220;2023-06-10T10:53:25;8.43;;;5.95;;
58468;SDS011;44257;44.804;10.220;2023-06-10T10:55:58;7.25;;;5.97;;
58468;SDS011;44257;44.804;10.220;2023-06-10T10:58:33;6.20;;;5.40;;
58468;SDS011;44257;44.804;10.220;2023-06-10T11:00:59;7.07;;;5.97;;
58468;SDS011;44257;44.804;10.220;2023-06-10T11:03:28;8.82;;;5.60;;
58468;SDS011;44257;44.804;10.220;2023-06-10T11:05:57;9.35;;;5.22;;
58468;SDS011;44257;44.804;10.220;2023-06-10T11:10:59;7.85;;;5.95;;
58468;SDS011;44257;44.804;10.220;2023-06-10T11:13:25;6.25;;;5.15;;
58468;SDS011;44257;44.804;10.220;2023-06-10T11:15:52;7.22;;;4.75;;
58468;SDS011;44257;44.804;10.220;2023-06-10T11:18:27;8.43;;;5.07;;
58468;SDS011;44257;44.804;10.220;2023-06-10T11:20:55;6.43;;;5.45;;
58468;SDS011;44257;44.804;10.220;2023-06-10T11:23:29;7.38;;;5.45;;
58468;SDS011;44257;44.804;10.220;2023-06-10T11:26:14;7.05;;;5.85;;
58468;SDS011;44257;44.804;10.220;2023-06-10T11:28:41;8.80;;;6.03;;
58468;SDS011;44257;44.804;10.220;2023-06-10T11:31:26;8.07;;;5.95;;
58468;SDS011;44257;44.804;10.220;2023-06-10T11:34:00;6.95;;;6.20;;
58468;SDS011;44257;44.804;10.220;2023-06-10T11:36:28;12.85;;;6.80;;
58468;SDS011;44257;44.804;10.220;2023-06-10T11:38:58;6.40;;;5.13;;
58468;SDS011;44257;44.804;10.220;2023-06-10T11:41:26;9.57;;;6.38;;
58468;SDS011;44257;44.804;10.220;2023-06-10T11:43:54;8.10;;;4.95;;
58468;SDS011;44257;44.804;10.220;2023-06-10T11:46:23;6.65;;;4.65;;
58468;SDS011;44257;44.804;10.220;2023-06-10T11:48:54;6.78;;;4.90;;
58468;SDS011;44257;44.804;10.220;2023-06-10T11:51:21;7.35;;;4.03;;
58468;SDS011;44257;44.804;10.220;2023-06-10T11:53:50;7.93;;;4.20;;
58468;SDS011;44257;44.804;10.220;2023-06-10T11:56:24;6.47;;;4.00;;
58468;SDS011;44257;44.804;10.220;2023-06-10T11:59:00;6.35;;;3.28;;
58468;SDS011;44257;44.804;10.220;2023-06-10T12:01:35;6.82;;;3.40;;
58468;SDS011;44257;44.804;10.220;2023-06-10T12:04:06;6.65;;;3.70;;
58468;SDS011;44257;44.804;10.220;2023-06-10T12:06:40;5.05;;;3.75;;
58468;SDS011;44257;44.804;10.220;2023-06-10T12:09:21;6.35;;;3.65;;
58468;SDS011;44257;44.804;10.220;2023-06-10T12:11:52;7.30;;;3.80;;
58468;SDS011;44257;44.804;10.220;2023-06-10T12:17:19;11.63;;;3.17;;
58468;SDS011;44257;44.804;10.220;2023-06-10T12:19:47;4.90;;;3.05;;
58468;SDS011;44257;44.804;10.220;2023-06-10T12:22:13;5.30;;;3.58;;
58468;SDS011;44257;44.804;10.220;2023-06-10T12:25:13;6.65;;;3.28;;
58468;SDS011;44257;44.804;10.220;2023-06-10T12:27:33;4.78;;;3.58;;
58468;SDS011;44257;44.804;10.220;2023-06-10T12:30:01;4.68;;;3.35;;
58468;SDS011;44257;44.804;10.220;2023-06-10T12:32:36;4.95;;;3.42;;
58468;SDS011;44257;44.804;10.220;2023-06-10T12:35:06;5.60;;;3.63;;
58468;SDS011;44257;44.804;10.220;2023-06-10T12:37:33;6.65;;;3.70;;
58468;SDS011;44257;44.804;10.220;2023-06-10T12:40:00;6.35;;;3.65;;
58468;SDS011;44257;44.804;10.220;2023-06-10T12:42:28;5.57;;;3.20;;
58468;SDS011;44257;44.804;10.220;2023-06-10T12:44:55;5.07;;;3.10;;
58468;SDS011;44257;44.804;10.220;2023-06-10T12:47:35;5.88;;;3.53;;
58468;SDS011;44257;44.804;10.220;2023-06-10T12:50:04;7.30;;;2.97;;
58468;SDS011;44257;44.804;10.220;2023-06-10T12:52:30;5.60;;;3.22;;
58468;SDS011;44257;44.804;10.220;2023-06-10T12:54:57;5.47;;;3.45;;
58468;SDS011;44257;44.804;10.220;2023-06-10T12:57:24;5.80;;;3.15;;
58468;SDS011;44257;44.804;10.220;2023-06-10T12:59:50;6.57;;;2.70;;
58468;SDS011;44257;44.804;10.220;2023-06-10T13:02:20;7.75;;;3.13;;
58468;SDS011;44257;44.804;10.220;2023-06-10T13:04:49;5.20;;;3.20;;
58468;SDS011;44257;44.804;10.220;2023-06-10T13:07:15;7.55;;;3.35;;
58468;SDS011;44257;44.804;10.220;2023-06-10T13:09:42;7.88;;;3.17;;
58468;SDS011;44257;44.804;10.220;2023-06-10T13:12:08;3.97;;;2.47;;
58468;SDS011;44257;44.804;10.220;2023-06-10T13:14:35;5.57;;;2.60;;
58468;SDS011;44257;44.804;10.220;2023-06-10T13:17:03;6.55;;;2.85;;
58468;SDS011;44257;44.804;10.220;2023-06-10T13:19:32;6.47;;;3.67;;
58468;SDS011;44257;44.804;10.220;2023-06-10T13:21:58;6.25;;;2.72;;
58468;SDS011;44257;44.804;10.220;2023-06-10T13:24:24;4.85;;;2.80;;
58468;SDS011;44257;44.804;10.220;2023-06-10T13:26:51;6.22;;;2.80;;
58468;SDS011;44257;44.804;10.220;2023-06-10T13:29:17;6.60;;;3.28;;
58468;SDS011;44257;44.804;10.220;2023-06-10T13:31:43;6.20;;;3.47;;
58468;SDS011;44257;44.804;10.220;2023-06-10T13:34:08;6.75;;;2.85;;
58468;SDS011;44257;44.804;10.220;2023-06-10T13:36:34;7.32;;;3.35;;
58468;SDS011;44257;44.804;10.220;2023-06-10T13:39:00;5.35;;;2.97;;
58468;SDS011;44257;44.804;10.220;2023-06-10T13:41:26;7.72;;;3.08;;
58468;SDS011;44257;44.804;10.220;2023-06-10T13:43:54;4.80;;;3.08;;
58468;SDS011;44257;44.804;10.220;2023-06-10T13:46:20;5.78;;;2.85;;
58468;SDS011;44257;44.804;10.220;2023-06-10T13:48:47;6.05;;;2.65;;
58468;SDS011;44257;44.804;10.220;2023-06-10T13:51:13;6.38;;;2.70;;
58468;SDS011;44257;44.804;10.220;2023-06-10T13:53:39;7.25;;;2.42;;
58468;SDS011;44257;44.804;10.220;2023-06-10T13:56:05;4.35;;;2.63;;
58468;SDS011;44257;44.804;10.220;2023-06-10T13:58:30;6.63;;;3.13;;
58468;SDS011;44257;44.804;10.220;2023-06-10T14:00:56;8.02;;;2.70;;
58468;SDS011;44257;44.804;10.220;2023-06-10T14:03:23;6.07;;;2.65;;
58468;SDS011;44257;44.804;10.220;2023-06-10T14:05:49;6.15;;;2.80;;
58468;SDS011;44257;44.804;10.220;2023-06-10T14:08:15;5.95;;;3.08;;
58468;SDS011;44257;44.804;10.220;2023-06-10T14:10:42;5.13;;;2.85;;
58468;SDS011;44257;44.804;10.220;2023-06-10T14:13:07;6.20;;;3.15;;
58468;SDS011;44257;44.804;10.220;2023-06-10T14:15:34;6.53;;;3.05;;
58468;SDS011;44257;44.804;10.220;2023-06-10T14:18:00;6.05;;;2.42;;
58468;SDS011;44257;44.804;10.220;2023-06-10T14:20:26;4.85;;;2.40;;
58468;SDS011;44257;44.804;10.220;2023-06-10T14:22:56;4.35;;;2.38;;
58468;SDS011;44257;44.804;10.220;2023-06-10T14:25:22;4.28;;;2.58;;
58468;SDS011;44257;44.804;10.220;2023-06-10T14:27:48;4.75;;;2.40;;
58468;SDS011;44257;44.804;10.220;2023-06-10T14:30:14;5.22;;;2.28;;
58468;SDS011;44257;44.804;10.220;2023-06-10T14:32:40;4.22;;;2.05;;
58468;SDS011;44257;44.804;10.220;2023-06-10T14:35:07;7.28;;;2.25;;
58468;SDS011;44257;44.804;10.220;2023-06-10T14:37:32;10.55;;;2.83;;
58468;SDS011;44257;44.804;10.220;2023-06-10T14:39:59;5.70;;;2.20;;
58468;SDS011;44257;44.804;10.220;2023-06-10T14:42:25;5.10;;;2.10;;
58468;SDS011;44257;44.804;10.220;2023-06-10T14:44:51;4.30;;;2.50;;
58468;SDS011;44257;44.804;10.220;2023-06-10T14:47:16;5.32;;;2.17;;
58468;SDS011;44257;44.804;10.220;2023-06-10T14:49:42;5.05;;;2.40;;
58468;SDS011;44257;44.804;10.220;2023-06-10T14:52:09;4.22;;;3.20;;
58468;SDS011;44257;44.804;10.220;2023-06-10T14:54:35;4.90;;;3.33;;
58468;SDS011;44257;44.804;10.220;2023-06-10T14:57:01;5.68;;;2.80;;